createdAt,value
2023-05-18T00:00:25.554Z,8.88
2023-05-18T00:02:58.158Z,8.82
2023-05-18T00:05:34.167Z,8.79
2023-05-18T00:08:06.001Z,8.74
2023-05-18T00:10:37.563Z,8.70
2023-05-18T00:13:09.004Z,8.69
2023-05-18T00:15:40.419Z,8.67
2023-05-18T00:18:11.896Z,8.66
2023-05-18T00:20:43.766Z,8.65
2023-05-18T00:23:16.445Z,8.62
2023-05-18T00:25:47.901Z,8.57
2023-05-18T00:28:19.366Z,8.56
2023-05-18T00:30:50.774Z,8.50
2023-05-18T00:33:22.545Z,8.47
2023-05-18T00:35:53.987Z,8.42
2023-05-18T00:38:25.550Z,8.41
2023-05-18T00:40:57.074Z,8.41
2023-05-18T00:43:28.567Z,8.42
2023-05-18T00:46:00.047Z,8.44
2023-05-18T00:48:31.477Z,8.45
2023-05-18T00:51:02.920Z,8.45
2023-05-18T00:53:34.428Z,8.41
2023-05-18T00:56:06.054Z,8.30
2023-05-18T00:58:38.592Z,8.24
2023-05-18T01:01:10.059Z,8.23
2023-05-18T01:03:43.080Z,8.21
2023-05-18T01:06:14.876Z,8.19
2023-05-18T01:08:47.219Z,8.20
2023-05-18T01:11:27.119Z,8.17
2023-05-18T01:14:01.805Z,8.14
2023-05-18T01:16:37.447Z,8.08
2023-05-18T01:19:14.039Z,8.05
2023-05-18T01:22:04.415Z,8.02
2023-05-18T01:24:42.705Z,7.98
2023-05-18T01:27:17.814Z,7.94
2023-05-18T01:29:49.955Z,7.88
2023-05-18T01:32:21.917Z,7.83
2023-05-18T01:34:53.328Z,7.82
2023-05-18T01:37:24.854Z,7.80
2023-05-18T01:39:56.305Z,7.79
2023-05-18T01:42:28.360Z,7.75
2023-05-18T01:45:07.373Z,7.75
2023-05-18T01:47:41.447Z,7.72
2023-05-18T01:50:21.169Z,7.71
2023-05-18T01:53:03.156Z,7.69
2023-05-18T01:55:35.435Z,7.61
2023-05-18T01:58:08.171Z,7.59
2023-05-18T02:00:39.656Z,7.58
2023-05-18T02:03:12.479Z,7.58
2023-05-18T02:05:44.108Z,7.58
2023-05-18T02:08:16.296Z,7.55
2023-05-18T02:10:47.664Z,7.51
2023-05-18T02:13:19.049Z,7.49
2023-05-18T02:15:50.598Z,7.48
2023-05-18T02:18:22.137Z,7.47
2023-05-18T02:21:00.499Z,7.46
2023-05-18T02:23:31.967Z,7.45
2023-05-18T02:26:03.397Z,7.46
2023-05-18T02:28:34.909Z,7.43
2023-05-18T02:31:07.245Z,7.43
2023-05-18T02:33:41.721Z,7.39
2023-05-18T02:36:14.050Z,7.34
2023-05-18T02:38:45.544Z,7.33
2023-05-18T02:41:16.965Z,7.33
2023-05-18T02:43:48.340Z,7.29
2023-05-18T02:46:19.889Z,7.26
2023-05-18T02:48:51.451Z,7.26
2023-05-18T02:51:23.363Z,7.26
2023-05-18T02:53:54.800Z,7.27
2023-05-18T02:56:26.274Z,7.29
2023-05-18T02:58:58.511Z,7.28
2023-05-18T03:01:30.104Z,7.28
2023-05-18T03:04:01.592Z,7.29
2023-05-18T03:06:32.982Z,7.26
2023-05-18T03:09:04.797Z,7.27
2023-05-18T03:11:36.270Z,7.24
2023-05-18T03:14:07.650Z,7.26
2023-05-18T03:16:39.634Z,7.27
2023-05-18T03:19:11.156Z,7.27
2023-05-18T03:21:42.653Z,7.25
2023-05-18T03:24:14.610Z,7.24
2023-05-18T03:26:48.579Z,7.25
2023-05-18T03:29:20.621Z,7.28
2023-05-18T03:31:52.144Z,7.22
2023-05-18T03:34:23.545Z,7.20
2023-05-18T03:36:55.163Z,7.17
2023-05-18T03:39:26.550Z,7.15
2023-05-18T03:41:57.960Z,7.14
2023-05-18T03:44:29.341Z,7.14
2023-05-18T03:47:00.889Z,7.16
2023-05-18T03:49:33.763Z,7.16
2023-05-18T03:52:05.364Z,7.13
2023-05-18T03:54:36.775Z,7.12
2023-05-18T03:57:08.152Z,7.14
2023-05-18T03:59:39.581Z,7.15
2023-05-18T04:02:12.004Z,7.13
2023-05-18T04:04:45.997Z,7.12
2023-05-18T04:07:17.406Z,7.15
2023-05-18T04:09:49.292Z,7.16
2023-05-18T04:12:20.941Z,7.22
2023-05-18T04:14:54.141Z,7.23
2023-05-18T04:17:26.126Z,7.26
2023-05-18T04:19:57.559Z,7.28
2023-05-18T04:22:31.266Z,7.31
2023-05-18T04:25:03.233Z,7.33
2023-05-18T04:27:34.850Z,7.35
2023-05-18T04:30:08.661Z,7.43
2023-05-18T04:32:42.843Z,7.44
2023-05-18T04:35:15.288Z,7.50
2023-05-18T04:37:46.743Z,7.55
2023-05-18T04:40:18.195Z,7.59
2023-05-18T04:42:49.706Z,7.63
2023-05-18T04:45:22.010Z,7.61
2023-05-18T04:47:54.305Z,7.70
2023-05-18T04:50:26.212Z,7.72
2023-05-18T04:52:58.395Z,7.79
2023-05-18T04:55:31.127Z,7.84
2023-05-18T04:58:03.456Z,7.90
2023-05-18T05:00:34.837Z,7.93
2023-05-18T05:03:06.838Z,7.97
2023-05-18T05:05:38.328Z,8.01
2023-05-18T05:08:09.808Z,8.07
2023-05-18T05:10:41.169Z,8.12
2023-05-18T05:13:12.548Z,8.18
2023-05-18T05:15:43.972Z,8.26
2023-05-18T05:18:15.584Z,8.30
2023-05-18T05:20:47.045Z,8.34
2023-05-18T05:23:18.573Z,8.36
2023-05-18T05:25:50.071Z,8.44
2023-05-18T05:28:21.474Z,8.47
2023-05-18T05:30:52.920Z,8.53
2023-05-18T05:33:24.286Z,8.57
2023-05-18T05:35:55.861Z,8.64
2023-05-18T05:38:27.313Z,8.70
2023-05-18T05:40:58.726Z,8.78
2023-05-18T05:43:30.107Z,8.82
2023-05-18T05:46:01.472Z,8.89
2023-05-18T05:48:34.872Z,8.91
2023-05-18T05:51:06.431Z,8.96
2023-05-18T05:53:37.859Z,9.01
2023-05-18T05:56:09.394Z,9.15
2023-05-18T05:58:42.244Z,9.49
2023-05-18T06:01:13.666Z,9.86
2023-05-18T06:03:45.387Z,9.81
2023-05-18T06:06:16.991Z,9.79
2023-05-18T06:08:48.393Z,9.63
2023-05-18T06:11:19.758Z,9.59
2023-05-18T06:13:52.397Z,9.68
2023-05-18T06:16:24.727Z,9.65
2023-05-18T06:18:56.294Z,9.72
2023-05-18T06:21:27.855Z,9.66
2023-05-18T06:23:59.552Z,9.64
2023-05-18T06:26:31.161Z,9.76
2023-05-18T06:29:02.996Z,9.84
2023-05-18T06:31:34.852Z,9.85
2023-05-18T06:34:06.224Z,9.83
2023-05-18T06:36:38.101Z,9.97
2023-05-18T06:39:09.739Z,10.01
2023-05-18T06:41:41.130Z,10.08
2023-05-18T06:44:12.691Z,10.12
2023-05-18T06:46:44.221Z,10.17
2023-05-18T06:49:15.841Z,10.12
2023-05-18T06:51:47.248Z,10.16
2023-05-18T06:54:18.658Z,10.20
2023-05-18T06:56:50.114Z,10.37
2023-05-18T06:59:22.362Z,10.47
2023-05-18T07:01:53.879Z,10.50
2023-05-18T07:04:25.540Z,10.46
2023-05-18T07:06:56.922Z,10.52
2023-05-18T07:09:28.737Z,10.59
2023-05-18T07:12:00.252Z,10.69
2023-05-18T07:14:31.699Z,10.92
2023-05-18T07:17:04.183Z,10.91
2023-05-18T07:19:35.680Z,11.01
2023-05-18T07:22:07.715Z,11.06
2023-05-18T07:24:39.270Z,11.19
2023-05-18T07:27:10.658Z,11.21
2023-05-18T07:29:42.194Z,11.36
2023-05-18T07:32:13.611Z,11.44
2023-05-18T07:34:46.769Z,11.43
2023-05-18T07:37:18.174Z,11.57
2023-05-18T07:39:49.642Z,11.71
2023-05-18T07:42:21.047Z,11.58
2023-05-18T07:44:52.536Z,11.80
2023-05-18T07:47:24.001Z,11.93
2023-05-18T07:49:55.926Z,11.99
2023-05-18T07:52:27.392Z,12.07
2023-05-18T07:54:58.818Z,12.21
2023-05-18T07:57:31.013Z,12.22
2023-05-18T08:00:04.957Z,12.37
2023-05-18T08:02:36.537Z,12.35
2023-05-18T08:05:08.508Z,12.32
2023-05-18T08:07:39.878Z,12.40
2023-05-18T08:10:11.558Z,12.36
2023-05-18T08:12:42.965Z,12.50
2023-05-18T08:15:14.392Z,12.49
2023-05-18T08:17:45.958Z,12.53
2023-05-18T08:20:17.474Z,12.53
2023-05-18T08:22:48.996Z,12.55
2023-05-18T08:25:20.903Z,12.63
2023-05-18T08:27:52.342Z,12.70
2023-05-18T08:30:23.850Z,12.67
2023-05-18T08:32:55.429Z,12.68
2023-05-18T08:35:27.008Z,12.90
2023-05-18T08:37:58.386Z,13.04
2023-05-18T08:40:35.995Z,13.09
2023-05-18T08:43:11.773Z,13.29
2023-05-18T08:45:48.778Z,13.42
2023-05-18T08:48:22.312Z,13.55
2023-05-18T08:50:56.626Z,13.63
2023-05-18T08:53:29.441Z,13.64
2023-05-18T08:56:01.496Z,13.64
2023-05-18T08:58:35.883Z,13.73
2023-05-18T09:01:08.774Z,13.87
2023-05-18T09:03:41.218Z,13.89
2023-05-18T09:06:12.779Z,13.75
2023-05-18T09:08:44.901Z,13.83
2023-05-18T09:11:17.253Z,13.78
2023-05-18T09:13:49.748Z,13.80
2023-05-18T09:16:21.273Z,13.82
2023-05-18T09:18:53.000Z,13.94
2023-05-18T09:21:24.399Z,13.99
2023-05-18T09:23:55.846Z,13.95
2023-05-18T09:26:27.560Z,13.86
2023-05-18T09:28:59.599Z,13.76
2023-05-18T09:31:31.366Z,13.78
2023-05-18T09:34:03.498Z,13.91
2023-05-18T09:36:34.986Z,13.93
2023-05-18T09:39:12.416Z,14.09
2023-05-18T09:41:43.941Z,14.12
2023-05-18T09:44:16.659Z,14.22
2023-05-18T09:46:48.059Z,13.98
2023-05-18T09:49:21.602Z,14.00
2023-05-18T09:51:53.755Z,14.39
2023-05-18T09:54:25.408Z,14.52
2023-05-18T09:57:09.450Z,14.50
2023-05-18T09:59:42.089Z,14.51
2023-05-18T10:02:15.458Z,14.50
2023-05-18T10:04:46.939Z,14.35
2023-05-18T10:07:18.594Z,14.45
2023-05-18T10:10:00.227Z,14.36
2023-05-18T10:12:31.634Z,14.09
2023-05-18T10:15:03.010Z,14.06
2023-05-18T10:17:34.740Z,14.13
2023-05-18T10:20:08.624Z,14.24
2023-05-18T10:22:40.614Z,14.22
2023-05-18T10:25:12.149Z,14.08
2023-05-18T10:27:44.205Z,13.95
2023-05-18T10:30:17.571Z,13.91
2023-05-18T10:32:49.505Z,13.88
2023-05-18T10:35:21.867Z,14.08
2023-05-18T10:37:55.143Z,14.35
2023-05-18T15:23:47.503Z,12.98
2023-05-18T15:26:19.113Z,12.96
2023-05-18T15:28:50.646Z,12.95
2023-05-18T15:31:22.330Z,12.98
2023-05-18T15:33:53.972Z,13.03
2023-05-18T15:36:25.622Z,13.11
2023-05-18T15:38:57.158Z,13.15
2023-05-18T15:41:33.700Z,13.14
2023-05-18T15:44:05.383Z,13.16
2023-05-18T15:46:37.083Z,13.19
2023-05-18T15:49:08.586Z,13.15
2023-05-18T15:51:40.110Z,13.08
2023-05-18T15:54:12.025Z,13.13
2023-05-18T15:56:43.676Z,13.08
2023-05-18T15:59:15.236Z,13.14
2023-05-18T16:01:46.942Z,13.15
2023-05-18T16:04:18.521Z,13.13
2023-05-18T16:06:50.038Z,13.07
2023-05-18T16:09:21.738Z,13.05
2023-05-18T16:11:53.376Z,13.00
2023-05-18T16:14:24.906Z,12.90
2023-05-18T16:16:56.615Z,12.86
2023-05-18T16:19:28.762Z,12.82
2023-05-18T16:22:00.374Z,12.76
2023-05-18T16:24:31.964Z,12.79
2023-05-18T16:27:03.686Z,12.79
2023-05-18T16:29:35.455Z,12.74
2023-05-18T16:32:10.074Z,12.78
2023-05-18T16:34:42.035Z,12.71
2023-05-18T16:37:13.591Z,12.71
2023-05-18T16:39:45.184Z,12.71
2023-05-18T16:42:18.399Z,12.71
2023-05-18T16:44:50.073Z,12.65
2023-05-18T16:47:22.344Z,12.66
2023-05-18T16:49:54.282Z,12.60
2023-05-18T16:52:26.200Z,12.54
2023-05-18T16:54:57.730Z,12.60
2023-05-18T16:57:30.161Z,12.54
2023-05-18T17:00:01.721Z,12.55
2023-05-18T17:02:34.189Z,12.57
2023-05-18T17:05:08.546Z,12.59
2023-05-18T17:07:40.810Z,12.43
2023-05-18T17:10:12.533Z,12.53
2023-05-18T17:12:47.071Z,12.51
2023-05-18T17:15:18.631Z,12.44
2023-05-18T17:17:50.188Z,12.42
2023-05-18T17:20:22.242Z,12.39
2023-05-18T17:22:54.049Z,12.41
2023-05-18T17:25:25.880Z,12.41
2023-05-18T17:27:58.754Z,12.36
2023-05-18T17:30:30.729Z,12.36
2023-05-18T17:33:03.058Z,12.36
2023-05-18T17:35:34.845Z,12.31
2023-05-18T17:38:06.508Z,12.30
2023-05-18T17:40:38.048Z,12.30
2023-05-18T17:43:09.743Z,12.29
2023-05-18T17:45:41.274Z,12.22
2023-05-18T17:48:12.898Z,12.23
2023-05-18T17:50:45.536Z,12.25
2023-05-18T17:53:17.506Z,12.17
2023-05-18T17:55:49.086Z,12.13
2023-05-18T17:58:21.314Z,12.09
2023-05-18T18:00:52.788Z,12.11
2023-05-18T18:03:24.576Z,12.12
2023-05-18T18:05:56.200Z,12.12
2023-05-18T18:08:30.525Z,12.11
2023-05-18T18:11:02.658Z,12.06
2023-05-18T18:13:34.240Z,12.04
2023-05-18T18:16:06.248Z,11.99
2023-05-18T18:18:38.996Z,12.00
2023-05-18T18:21:10.949Z,12.00
2023-05-18T18:23:42.536Z,12.02
2023-05-18T18:26:14.173Z,12.03
2023-05-18T18:28:45.834Z,12.02
2023-05-18T18:31:17.699Z,11.97
2023-05-18T18:33:52.211Z,11.97
2023-05-18T18:36:26.252Z,11.93
2023-05-18T18:38:58.132Z,11.95
2023-05-18T18:41:29.922Z,11.93
2023-05-18T18:44:01.789Z,11.89
2023-05-18T18:46:33.474Z,11.88
2023-05-18T18:49:05.163Z,11.88
2023-05-18T18:51:36.725Z,11.86
2023-05-18T18:54:08.252Z,11.86
2023-05-18T18:56:39.813Z,11.86
2023-05-18T18:59:11.634Z,11.87
2023-05-18T19:01:43.451Z,11.85
2023-05-18T19:04:15.065Z,11.83
2023-05-18T19:06:46.665Z,11.77
2023-05-18T19:09:18.234Z,11.73
2023-05-18T19:11:49.818Z,11.72
2023-05-18T19:14:21.330Z,11.72
2023-05-18T19:16:52.999Z,11.70
2023-05-18T19:19:24.658Z,11.69
2023-05-18T19:21:56.317Z,11.69
2023-05-18T19:24:27.989Z,11.68
2023-05-18T19:26:59.660Z,11.64
2023-05-18T19:29:31.935Z,11.62
2023-05-18T19:32:04.192Z,11.61
2023-05-18T19:34:36.062Z,11.62
2023-05-18T19:37:07.736Z,11.53
2023-05-18T19:39:39.281Z,11.49
2023-05-18T19:42:10.954Z,11.50
2023-05-18T19:44:42.500Z,11.43
2023-05-18T19:47:14.405Z,11.43
2023-05-18T19:49:46.350Z,11.42
2023-05-18T19:52:19.877Z,11.42
2023-05-18T19:54:51.793Z,11.42
2023-05-18T19:57:23.459Z,11.43
2023-05-18T19:59:54.994Z,11.40
2023-05-18T20:02:26.640Z,11.39
2023-05-18T20:04:58.234Z,11.40
2023-05-18T20:07:29.846Z,11.38
2023-05-18T20:10:01.434Z,11.35
2023-05-18T20:12:33.129Z,11.32
2023-05-18T20:15:05.381Z,11.34
2023-05-18T20:17:37.069Z,11.30
2023-05-18T20:20:08.985Z,11.35
2023-05-18T20:22:40.840Z,11.35
2023-05-18T20:25:12.879Z,11.35
2023-05-18T20:27:44.613Z,11.29
2023-05-18T20:30:16.216Z,11.32
2023-05-18T20:32:47.794Z,11.33
2023-05-18T20:35:20.768Z,11.27
2023-05-18T20:37:57.381Z,11.26
2023-05-18T20:40:30.778Z,11.29
2023-05-18T20:43:04.822Z,11.25
2023-05-18T20:45:36.736Z,11.27
2023-05-18T20:48:09.178Z,11.29
2023-05-18T20:50:41.093Z,11.27
2023-05-18T20:53:12.632Z,11.23
2023-05-18T20:55:46.211Z,11.16
2023-05-18T20:58:18.599Z,11.18
2023-05-18T21:00:50.305Z,11.20
2023-05-18T21:03:22.420Z,11.21
2023-05-18T21:05:54.162Z,11.23
2023-05-18T21:08:26.429Z,11.20
2023-05-18T21:10:58.025Z,11.19
2023-05-18T21:13:29.585Z,11.18
2023-05-18T21:16:01.505Z,11.03
2023-05-18T21:18:34.387Z,11.03
2023-05-18T21:21:06.284Z,11.04
2023-05-18T21:23:37.802Z,11.01
2023-05-18T21:26:09.390Z,10.98
2023-05-18T21:28:41.059Z,10.98
2023-05-18T21:31:12.722Z,10.99
2023-05-18T21:33:47.878Z,10.95
2023-05-18T21:36:34.175Z,10.92
2023-05-18T21:39:08.393Z,10.85
2023-05-18T21:41:42.371Z,10.75
2023-05-18T21:44:14.407Z,10.64
2023-05-18T21:46:46.024Z,10.69
2023-05-18T21:49:17.692Z,10.66
2023-05-18T21:51:49.326Z,10.57
2023-05-18T21:54:21.030Z,10.64
2023-05-18T21:56:52.709Z,10.61
2023-05-18T21:59:24.280Z,10.61
2023-05-18T22:01:56.200Z,10.63
2023-05-18T22:04:27.805Z,10.65
2023-05-18T22:07:00.692Z,10.65
2023-05-18T22:09:32.227Z,10.59
2023-05-18T22:12:04.002Z,10.63
2023-05-18T22:14:35.949Z,10.60
2023-05-18T22:17:07.507Z,10.61
2023-05-18T22:19:39.124Z,10.61
2023-05-18T22:22:16.515Z,10.58
2023-05-18T22:24:54.962Z,10.61
2023-05-18T22:27:26.769Z,10.46
2023-05-18T22:29:58.354Z,10.52
2023-05-18T22:32:30.209Z,10.55
2023-05-18T22:35:02.987Z,10.50
2023-05-18T22:37:34.589Z,10.50
2023-05-18T22:40:06.843Z,10.47
2023-05-18T22:42:38.393Z,10.47
2023-05-18T22:45:11.545Z,10.42
2023-05-18T22:47:45.127Z,10.37
2023-05-18T22:50:16.795Z,10.39
2023-05-18T22:52:48.388Z,10.38
2023-05-18T22:55:20.434Z,10.40
2023-05-18T22:57:52.091Z,10.40
2023-05-18T23:00:23.817Z,10.36
2023-05-18T23:02:56.567Z,10.38
2023-05-18T23:05:28.247Z,10.39
2023-05-18T23:07:59.877Z,10.39
2023-05-18T23:10:31.528Z,10.34
2023-05-18T23:13:03.241Z,10.31
2023-05-18T23:15:34.908Z,10.30
2023-05-18T23:18:09.330Z,10.27
2023-05-18T23:20:42.093Z,10.26
2023-05-18T23:23:13.673Z,10.23
2023-05-18T23:25:45.326Z,10.11
2023-05-18T23:28:16.955Z,10.14
2023-05-18T23:30:48.590Z,10.16
2023-05-18T23:33:20.493Z,10.15
2023-05-18T23:35:52.292Z,10.15
2023-05-18T23:38:34.614Z,10.13
2023-05-18T23:41:06.897Z,10.11
2023-05-18T23:43:38.912Z,10.12
2023-05-18T23:46:10.948Z,10.15
2023-05-18T23:48:42.749Z,10.14
2023-05-18T23:51:20.559Z,10.14
2023-05-18T23:53:52.574Z,10.09
2023-05-18T23:56:24.900Z,10.16
2023-05-18T23:58:56.639Z,10.16
